Time;durP1;ratioP1;P1;durP2;ratioP2;P2;SDS_P1;SDS_P2;PMS_P1;PMS_P2;Temp;Humidity;BMP_temperature;BMP_pressure;BME280_temperature;BME280_humidity;BME280_pressure;Samples;Min_cycle;Max_cycle;Signal;HPM_P1;HPM_P2
2021/11/13 00:02:19;;;;;;;45.60;13.20;;;10.50;71.20;;;;;;6268632;28;20033;-76
2021/11/13 00:05:22;;;;;;;40.03;14.05;;;10.60;71.40;;;;;;6264508;28;20036;-76
2021/11/13 00:08:23;;;;;;;46.80;14.48;;;10.70;71.30;;;;;;6268111;28;20033;-77
2021/11/13 00:11:27;;;;;;;48.20;15.13;;;10.70;71.10;;;;;;6253008;28;20224;-76
2021/11/13 00:14:29;;;;;;;35.40;12.70;;;10.80;71.00;;;;;;6239461;28;20041;-76
2021/11/13 00:17:30;;;;;;;41.08;15.35;;;10.80;70.80;;;;;;6242724;28;20037;-76
2021/11/13 00:20:31;;;;;;;40.53;14.77;;;10.90;70.70;;;;;;6268059;28;20036;-76
2021/11/13 00:23:33;;;;;;;42.58;14.57;;;10.90;70.50;;;;;;6246939;28;20037;-77
2021/11/13 00:26:36;;;;;;;42.22;15.23;;;10.90;70.50;;;;;;6268466;28;20122;-76
2021/11/13 00:29:37;;;;;;;33.30;12.70;;;10.90;70.70;;;;;;6267659;28;20037;-76
2021/11/13 00:32:42;;;;;;;37.53;12.40;;;10.90;70.50;;;;;;6252820;28;20045;-75
2021/11/13 00:35:43;;;;;;;39.25;14.38;;;10.90;70.60;;;;;;6239484;28;20121;-76
2021/11/13 00:38:44;;;;;;;44.50;13.70;;;10.90;70.60;;;;;;6258712;28;20374;-75
2021/11/13 00:41:45;;;;;;;42.88;14.20;;;10.90;70.70;;;;;;6265846;28;20029;-76
2021/11/13 00:44:48;;;;;;;32.97;13.45;;;10.90;70.70;;;;;;6267784;28;20033;-76
2021/11/13 00:47:48;;;;;;;42.15;13.55;;;10.80;70.60;;;;;;6268653;28;20078;-76
2021/11/13 00:50:50;;;;;;;38.30;12.77;;;10.80;70.60;;;;;;6263906;28;20033;-75
2021/11/13 00:53:51;;;;;;;34.15;11.57;;;10.80;70.60;;;;;;6232133;28;20049;-75
2021/11/13 00:56:52;;;;;;;33.30;13.70;;;10.80;70.60;;;;;;6213332;28;20068;-75
2021/11/13 00:59:53;;;;;;;33.58;13.60;;;10.70;70.70;;;;;;6230575;28;20053;-75
2021/11/13 01:02:54;;;;;;;38.03;12.68;;;10.70;71.00;;;;;;6229897;28;20045;-75
2021/11/13 01:05:55;;;;;;;42.80;12.45;;;10.70;71.00;;;;;;6235370;28;20134;-75
2021/11/13 01:08:57;;;;;;;35.85;13.05;;;10.70;71.00;;;;;;6253192;28;20049;-75
2021/11/13 01:11:59;;;;;;;31.30;13.32;;;10.80;71.10;;;;;;6231528;28;20073;-75
2021/11/13 01:15:00;;;;;;;39.53;12.77;;;10.80;71.10;;;;;;6232837;28;20504;-75
2021/11/13 01:18:02;;;;;;;37.08;13.48;;;10.80;70.90;;;;;;6226281;28;20037;-75
2021/11/13 01:21:02;;;;;;;44.20;14.18;;;10.80;70.90;;;;;;6234421;28;20038;-75
2021/11/13 01:24:04;;;;;;;36.50;12.40;;;10.80;70.70;;;;;;6238496;28;20040;-75
2021/11/13 01:27:05;;;;;;;44.42;14.05;;;10.80;70.70;;;;;;6249154;28;20048;-75
2021/11/13 01:30:08;;;;;;;40.40;13.65;;;10.80;70.90;;;;;;6256466;28;20115;-75
2021/11/13 01:33:09;;;;;;;42.55;13.60;;;10.80;70.90;;;;;;6271590;28;20029;-75
2021/11/13 01:36:12;;;;;;;46.35;15.27;;;10.80;70.90;;;;;;6269661;28;20040;-74
2021/11/13 01:39:13;;;;;;;33.00;12.63;;;10.80;71.00;;;;;;6271418;28;20116;-75
2021/11/13 01:42:14;;;;;;;34.42;12.70;;;10.80;70.90;;;;;;6268370;28;20039;-75
2021/11/13 01:45:17;;;;;;;35.28;12.50;;;10.80;70.70;;;;;;6274241;28;20370;-75
2021/11/13 01:48:18;;;;;;;41.17;12.93;;;10.80;70.60;;;;;;6254170;28;20033;-75
2021/11/13 01:51:25;;;;;;;44.80;12.95;;;10.80;70.80;;;;;;6268962;28;20056;-74
2021/11/13 01:54:27;;;;;;;36.25;14.07;;;10.80;70.80;;;;;;6255406;28;20045;-75
2021/11/13 01:57:33;;;;;;;42.15;14.88;;;10.70;70.80;;;;;;6286780;28;20041;-75
2021/11/13 02:00:41;;;;;;;34.42;11.93;;;10.80;70.80;;;;;;6269565;28;20033;-75
2021/11/13 02:03:45;;;;;;;32.28;11.65;;;10.80;70.80;;;;;;6274398;28;20036;-75
2021/11/13 02:06:46;;;;;;;37.22;12.50;;;10.80;70.80;;;;;;6269926;28;20571;-75
2021/11/13 02:09:47;;;;;;;28.95;10.70;;;10.80;70.70;;;;;;6256860;28;20048;-75
2021/11/13 02:12:48;;;;;;;41.25;12.70;;;10.80;70.70;;;;;;6272098;28;20044;-75
2021/11/13 02:15:49;;;;;;;35.53;12.35;;;10.80;70.60;;;;;;6269791;28;20088;-75
2021/11/13 02:18:50;;;;;;;40.42;12.90;;;10.80;70.50;;;;;;6273063;28;20119;-75
2021/11/13 02:21:52;;;;;;;33.28;11.98;;;10.80;70.40;;;;;;6270044;28;20075;-75
2021/11/13 02:24:53;;;;;;;28.13;12.88;;;10.90;70.60;;;;;;6269284;28;20041;-75
2021/11/13 02:27:54;;;;;;;32.28;11.43;;;10.90;70.30;;;;;;6253903;28;20524;-75
2021/11/13 02:30:57;;;;;;;31.98;12.80;;;10.80;70.20;;;;;;6272406;28;20075;-75
2021/11/13 02:33:59;;;;;;;32.35;11.27;;;10.80;70.40;;;;;;6249046;28;20102;-75
2021/11/13 02:36:59;;;;;;;24.55;9.60;;;10.80;70.40;;;;;;6272538;28;20029;-75
2021/11/13 02:40:03;;;;;;;27.63;11.27;;;10.80;70.40;;;;;;6272644;28;20032;-76
2021/11/13 02:43:05;;;;;;;30.38;11.00;;;10.70;70.30;;;;;;6272329;28;20033;-75
2021/11/13 02:46:08;;;;;;;33.58;11.80;;;10.70;70.40;;;;;;6272355;28;20037;-75
2021/11/13 02:49:11;;;;;;;29.40;10.90;;;10.70;70.50;;;;;;6271801;28;20033;-76
2021/11/13 02:52:12;;;;;;;31.50;11.55;;;10.70;70.50;;;;;;6269252;28;20048;-74
2021/11/13 02:55:13;;;;;;;27.90;10.68;;;10.70;70.50;;;;;;6272095;28;20095;-75
2021/11/13 02:58:15;;;;;;;31.45;11.20;;;10.70;70.50;;;;;;6249509;28;20045;-75
2021/11/13 03:01:19;;;;;;;33.90;10.55;;;10.70;70.50;;;;;;6273921;28;20033;-75
2021/11/13 03:04:21;;;;;;;30.75;10.60;;;10.60;70.50;;;;;;6270067;28;20041;-74
2021/11/13 03:07:22;;;;;;;26.73;10.77;;;10.60;70.50;;;;;;6251094;28;20526;-75
2021/11/13 03:10:26;;;;;;;26.40;9.27;;;10.60;70.50;;;;;;6272048;28;20112;-75
2021/11/13 03:13:29;;;;;;;27.75;9.85;;;10.60;70.60;;;;;;6272561;28;20037;-76
2021/11/13 03:16:32;;;;;;;25.50;9.80;;;10.70;70.60;;;;;;6267458;28;20036;-75
2021/11/13 03:20:00;;;;;;;28.00;10.02;;;10.70;70.50;;;;;;6266105;28;20033;-75
2021/11/13 03:23:03;;;;;;;27.58;9.75;;;10.70;70.50;;;;;;6249711;28;20036;-74
2021/11/13 03:26:15;;;;;;;27.38;9.02;;;10.70;70.50;;;;;;6268985;28;20032;-75
2021/11/13 03:29:26;;;;;;;22.10;8.73;;;10.70;70.30;;;;;;6266847;28;20135;-75
2021/11/13 03:32:27;;;;;;;34.60;10.50;;;10.70;70.20;;;;;;6239937;28;20523;-76
2021/11/13 03:35:30;;;;;;;27.20;10.32;;;10.60;70.30;;;;;;6265146;28;20053;-76
2021/11/13 03:38:31;;;;;;;34.25;10.50;;;10.60;70.40;;;;;;6250585;28;20075;-74
2021/11/13 03:41:33;;;;;;;30.63;10.50;;;10.60;70.50;;;;;;6264796;28;20076;-75
2021/11/13 03:44:34;;;;;;;36.67;11.25;;;10.70;70.60;;;;;;6265066;28;20038;-74
2021/11/13 03:47:35;;;;;;;33.15;10.73;;;10.70;70.50;;;;;;6269224;28;20037;-75
2021/11/13 03:50:36;;;;;;;30.27;10.40;;;10.70;70.40;;;;;;6264637;28;20379;-74
2021/11/13 03:53:37;;;;;;;26.45;10.35;;;10.70;70.50;;;;;;6266515;28;20126;-74
2021/11/13 03:56:38;;;;;;;28.83;11.15;;;10.70;70.50;;;;;;6249510;28;20040;-75
2021/11/13 03:59:40;;;;;;;21.38;9.20;;;10.70;70.40;;;;;;6259634;28;20037;-75
2021/11/13 04:02:44;;;;;;;21.17;9.00;;;10.70;70.50;;;;;;6264077;28;20063;-75
2021/11/13 04:05:46;;;;;;;22.67;8.57;;;10.70;70.30;;;;;;6264208;28;20032;-75
2021/11/13 04:08:48;;;;;;;28.00;10.55;;;10.60;70.10;;;;;;6265628;28;20569;-74
2021/11/13 04:11:49;;;;;;;29.05;8.90;;;10.50;70.20;;;;;;6247363;28;20033;-75
2021/11/13 04:14:50;;;;;;;30.98;9.93;;;10.50;70.30;;;;;;6264209;28;20045;-74
2021/11/13 04:17:51;;;;;;;29.10;10.45;;;10.40;70.40;;;;;;6265946;28;20036;-75
2021/11/13 04:20:52;;;;;;;28.35;11.05;;;10.40;70.60;;;;;;6261291;28;20041;-75
2021/11/13 04:23:53;;;;;;;26.52;10.52;;;10.40;70.50;;;;;;6247958;28;20037;-76
2021/11/13 04:26:54;;;;;;;23.52;9.38;;;10.30;70.60;;;;;;6264667;28;20118;-75
2021/11/13 04:29:55;;;;;;;32.35;10.82;;;10.30;70.80;;;;;;6264621;28;20080;-75
2021/11/13 04:37:18;;;;;;;21.40;8.27;;;10.40;70.90;;;;;;6263433;28;20128;-75
2021/11/13 04:40:21;;;;;;;28.90;10.47;;;10.40;70.90;;;;;;6265505;28;20038;-75
2021/11/13 04:43:22;;;;;;;26.23;10.05;;;10.50;70.70;;;;;;6268043;28;20051;-76
2021/11/13 04:46:23;;;;;;;22.73;9.85;;;10.50;70.70;;;;;;6266301;28;20032;-76
2021/11/13 04:49:25;;;;;;;26.75;10.52;;;10.50;70.70;;;;;;6264704;28;20034;-75
2021/11/13 04:52:27;;;;;;;30.13;9.73;;;10.60;70.70;;;;;;6251899;28;20412;-76
2021/11/13 04:55:28;;;;;;;27.15;10.52;;;10.60;70.50;;;;;;6252812;28;20090;-75
2021/11/13 04:58:28;;;;;;;29.73;9.25;;;10.60;70.40;;;;;;6254926;28;20125;-76
2021/11/13 05:01:29;;;;;;;33.17;10.50;;;10.70;70.40;;;;;;6253330;28;20037;-76
2021/11/13 05:04:30;;;;;;;25.30;9.52;;;10.70;70.40;;;;;;6250682;28;20037;-74
2021/11/13 05:07:34;;;;;;;30.58;11.35;;;10.70;70.30;;;;;;6250050;28;20454;-74
2021/11/13 05:10:35;;;;;;;27.45;9.45;;;10.70;70.20;;;;;;6249522;28;20703;-74
2021/11/13 05:13:36;;;;;;;27.48;11.93;;;10.80;70.10;;;;;;6251599;28;20048;-75
2021/11/13 05:16:37;;;;;;;26.73;10.32;;;10.80;70.10;;;;;;6258110;28;20045;-74
2021/11/13 05:19:38;;;;;;;30.50;11.18;;;10.80;70.00;;;;;;6257665;28;20062;-74
2021/11/13 05:22:41;;;;;;;30.83;9.48;;;10.80;69.90;;;;;;6265666;28;20112;-73
2021/11/13 05:25:42;;;;;;;23.25;9.73;;;10.80;69.90;;;;;;6272382;28;20029;-74
2021/11/13 05:28:44;;;;;;;32.25;8.73;;;10.90;69.80;;;;;;6275386;28;20021;-74
2021/11/13 05:31:44;;;;;;;24.23;9.25;;;10.90;69.80;;;;;;6267985;28;20040;-75
2021/11/13 05:34:46;;;;;;;23.48;9.63;;;10.80;69.50;;;;;;6266884;28;20045;-75
2021/11/13 05:37:51;;;;;;;31.65;10.52;;;10.80;69.50;;;;;;6268807;28;20045;-75
2021/11/13 05:40:53;;;;;;;23.83;10.18;;;10.80;69.60;;;;;;6267282;28;20041;-75
2021/11/13 05:43:54;;;;;;;19.50;8.65;;;10.80;69.60;;;;;;6263411;28;20098;-75
2021/11/13 05:46:55;;;;;;;24.63;8.30;;;10.70;69.50;;;;;;6270784;28;20064;-75
2021/11/13 05:49:58;;;;;;;20.90;8.60;;;10.70;69.40;;;;;;6260690;28;20033;-74
2021/11/13 05:52:59;;;;;;;22.13;8.63;;;10.60;69.20;;;;;;6255841;28;20462;-75
2021/11/13 05:56:00;;;;;;;20.77;7.30;;;10.60;69.60;;;;;;6242031;28;20462;-74
2021/11/13 05:59:01;;;;;;;17.08;7.43;;;10.50;69.70;;;;;;6255004;28;20168;-75
2021/11/13 06:02:05;;;;;;;15.43;7.13;;;10.50;69.60;;;;;;6257702;28;20029;-75
2021/11/13 06:05:06;;;;;;;19.55;7.50;;;10.50;69.50;;;;;;6257913;28;20042;-74
2021/11/13 06:08:07;;;;;;;16.33;6.85;;;10.50;69.40;;;;;;6253149;28;20072;-75
2021/11/13 06:11:09;;;;;;;21.05;7.60;;;10.50;69.20;;;;;;6227752;28;20444;-74
2021/11/13 06:14:10;;;;;;;17.10;7.30;;;10.50;69.30;;;;;;6224954;28;20091;-74
2021/11/13 06:17:11;;;;;;;16.35;6.78;;;10.50;69.40;;;;;;6240212;28;20040;-75
2021/11/13 06:20:12;;;;;;;15.40;6.95;;;10.50;69.30;;;;;;6225599;28;20048;-74
2021/11/13 06:23:13;;;;;;;14.10;6.65;;;10.50;69.30;;;;;;6241170;28;20034;-75
2021/11/13 06:26:15;;;;;;;17.77;7.28;;;10.60;69.20;;;;;;6238998;28;20030;-75
2021/11/13 06:29:16;;;;;;;13.30;7.15;;;10.60;69.10;;;;;;6243387;28;20037;-76
2021/11/13 06:32:17;;;;;;;22.65;7.18;;;10.60;69.00;;;;;;6235472;28;20132;-74
2021/11/13 06:35:18;;;;;;;23.00;9.00;;;10.60;69.10;;;;;;6241753;28;20041;-75
2021/11/13 06:38:23;;;;;;;25.92;10.13;;;10.60;69.00;;;;;;6240340;28;20382;-74
2021/11/13 06:41:29;;;;;;;20.67;9.15;;;10.60;69.00;;;;;;6243239;28;20053;-77
2021/11/13 06:44:30;;;;;;;20.58;8.48;;;10.50;68.80;;;;;;6243228;28;20034;-76
2021/11/13 06:47:32;;;;;;;20.27;9.10;;;10.50;68.80;;;;;;6227024;28;20037;-76
2021/11/13 06:50:37;;;;;;;16.10;8.30;;;10.40;68.90;;;;;;6238241;28;20044;-75
2021/11/13 06:53:38;;;;;;;21.83;8.50;;;10.30;69.10;;;;;;6242666;28;20486;-74
2021/11/13 06:56:40;;;;;;;20.08;9.00;;;10.30;69.40;;;;;;6239008;28;20181;-75
2021/11/13 06:59:41;;;;;;;22.90;9.13;;;10.40;69.70;;;;;;6239797;28;20041;-75
2021/11/13 07:02:43;;;;;;;21.67;6.95;;;10.40;69.50;;;;;;6243360;28;20049;-75
2021/11/13 07:05:44;;;;;;;17.83;7.50;;;10.40;69.50;;;;;;6240355;28;20116;-75
2021/11/13 07:08:46;;;;;;;15.55;7.15;;;10.40;69.30;;;;;;6221669;28;20066;-75
2021/11/13 07:11:47;;;;;;;18.88;7.97;;;10.40;69.20;;;;;;6241828;28;20042;-75
2021/11/13 07:14:48;;;;;;;17.83;7.03;;;10.40;69.00;;;;;;6241430;28;20067;-75
2021/11/13 07:17:49;;;;;;;23.23;8.13;;;10.30;68.90;;;;;;6241884;28;20041;-75
2021/11/13 07:20:58;;;;;;;17.02;7.85;;;10.30;69.20;;;;;;6241441;28;20132;-75
2021/11/13 07:23:59;;;;;;;17.70;7.53;;;10.30;69.20;;;;;;6244880;28;20121;-74
2021/11/13 07:27:02;;;;;;;20.65;8.63;;;10.30;69.20;;;;;;6246030;28;20041;-75
2021/11/13 07:30:04;;;;;;;30.70;8.40;;;10.30;69.20;;;;;;6245591;28;20045;-75
2021/11/13 07:33:05;;;;;;;20.05;8.23;;;10.40;69.40;;;;;;6241857;28;20041;-75
2021/11/13 07:36:07;;;;;;;17.73;7.90;;;10.40;69.20;;;;;;6242576;28;20041;-76
2021/11/13 07:39:08;;;;;;;18.35;8.82;;;10.40;69.10;;;;;;6245165;28;20040;-76
2021/11/13 07:42:09;;;;;;;20.58;9.15;;;10.40;68.90;;;;;;6245098;28;20171;-77
2021/11/13 07:45:10;;;;;;;25.58;10.35;;;10.40;69.00;;;;;;6247357;28;20036;-75
2021/11/13 07:48:11;;;;;;;21.02;7.90;;;10.40;69.00;;;;;;6273264;28;20025;-75
2021/11/13 07:51:12;;;;;;;29.48;9.75;;;10.50;68.80;;;;;;6267085;28;20466;-75
2021/11/13 07:54:14;;;;;;;23.23;10.45;;;10.50;68.80;;;;;;6268586;28;20044;-75
2021/11/13 07:57:14;;;;;;;29.23;9.20;;;10.60;68.80;;;;;;6270848;28;20040;-75
2021/11/13 08:00:18;;;;;;;28.80;11.10;;;10.60;68.90;;;;;;6270853;28;20127;-74
2021/11/13 08:03:19;;;;;;;26.80;10.07;;;10.60;68.70;;;;;;6268283;28;20459;-75
2021/11/13 08:06:20;;;;;;;24.98;9.95;;;10.70;68.60;;;;;;6266362;28;20029;-75
2021/11/13 08:09:21;;;;;;;25.52;10.02;;;10.70;68.60;;;;;;6243939;28;20187;-76
2021/11/13 08:12:22;;;;;;;25.25;10.35;;;10.70;68.60;;;;;;6268994;28;20379;-76
2021/11/13 08:15:23;;;;;;;28.65;10.15;;;10.70;68.50;;;;;;6267462;28;20448;-75
2021/11/13 08:18:24;;;;;;;26.48;10.25;;;10.80;68.50;;;;;;6273632;28;20043;-75
2021/11/13 08:21:25;;;;;;;22.83;9.35;;;10.80;68.30;;;;;;6265686;28;20037;-75
2021/11/13 08:24:26;;;;;;;30.98;10.77;;;10.80;68.20;;;;;;6266675;28;20185;-76
2021/11/13 08:27:27;;;;;;;24.35;9.48;;;10.80;68.20;;;;;;6267474;28;20051;-75
2021/11/13 08:30:29;;;;;;;27.33;10.23;;;10.80;68.20;;;;;;6267757;28;20056;-76
2021/11/13 08:33:30;;;;;;;32.45;12.07;;;10.80;68.30;;;;;;6267473;28;20056;-76
2021/11/13 08:36:31;;;;;;;31.17;11.23;;;10.80;68.30;;;;;;6268291;28;20041;-75
2021/11/13 08:39:35;;;;;;;31.55;11.68;;;10.80;68.20;;;;;;6269299;28;20044;-74
2021/11/13 08:42:36;;;;;;;34.97;11.68;;;10.80;68.30;;;;;;6264833;28;20037;-75
2021/11/13 08:45:37;;;;;;;29.52;11.82;;;10.80;68.50;;;;;;6270491;28;20127;-76
2021/11/13 08:48:38;;;;;;;36.88;13.77;;;10.80;68.50;;;;;;6270609;28;20043;-75
2021/11/13 08:51:40;;;;;;;31.65;11.63;;;10.90;68.70;;;;;;6261166;28;20066;-76
2021/11/13 08:54:41;;;;;;;27.55;11.63;;;10.90;68.60;;;;;;6242778;28;20037;-74
2021/11/13 08:57:43;;;;;;;30.58;11.05;;;10.90;68.40;;;;;;6247524;28;20041;-75
2021/11/13 09:00:49;;;;;;;35.90;12.80;;;11.00;68.40;;;;;;6269505;28;20064;-75
2021/11/13 09:03:51;;;;;;;30.33;10.48;;;11.00;68.40;;;;;;6266489;28;20037;-74
2021/11/13 09:06:52;;;;;;;31.70;11.93;;;11.10;68.30;;;;;;6259994;28;20041;-75
2021/11/13 09:09:54;;;;;;;34.20;13.02;;;11.10;68.20;;;;;;6270685;28;20083;-75
2021/11/13 09:12:56;;;;;;;27.98;11.38;;;11.20;67.90;;;;;;6268098;28;20391;-76
2021/11/13 09:16:00;;;;;;;30.88;11.68;;;11.20;67.80;;;;;;6267164;28;20131;-76
2021/11/13 09:19:03;;;;;;;32.28;11.13;;;11.30;67.80;;;;;;6266330;28;20112;-75
2021/11/13 09:22:04;;;;;;;34.22;12.48;;;11.40;67.60;;;;;;6251061;28;20048;-75
2021/11/13 09:25:09;;;;;;;28.60;11.18;;;11.40;67.40;;;;;;6266839;28;20048;-75
2021/11/13 09:28:10;;;;;;;30.65;11.95;;;11.50;67.30;;;;;;6262362;28;20051;-75
2021/11/13 09:31:12;;;;;;;32.15;13.23;;;11.50;67.00;;;;;;6269827;28;20037;-75
2021/11/13 09:34:14;;;;;;;29.33;11.70;;;11.50;66.60;;;;;;6237302;28;20056;-75
2021/11/13 09:37:15;;;;;;;28.48;11.82;;;11.50;66.70;;;;;;6244299;28;20036;-75
2021/11/13 09:40:21;;;;;;;32.58;11.80;;;11.60;66.70;;;;;;6244674;28;20513;-75
2021/11/13 09:43:24;;;;;;;37.38;13.68;;;11.60;66.60;;;;;;6241410;28;20041;-74
2021/11/13 09:46:26;;;;;;;29.52;12.30;;;11.70;66.50;;;;;;6248373;28;20038;-75
2021/11/13 09:49:29;;;;;;;32.70;12.63;;;11.80;66.40;;;;;;6250980;28;20530;-75
2021/11/13 09:52:30;;;;;;;30.30;12.57;;;12.00;66.20;;;;;;6231939;28;20418;-75
2021/11/13 09:55:31;;;;;;;32.25;12.95;;;12.10;66.00;;;;;;6264541;28;20037;-75
2021/11/13 09:58:32;;;;;;;41.97;17.58;;;12.20;65.80;;;;;;6273415;28;20067;-75
2021/11/13 10:01:33;;;;;;;39.40;14.90;;;12.40;65.50;;;;;;6271435;28;20045;-75
2021/11/13 10:04:34;;;;;;;27.85;11.48;;;12.50;65.40;;;;;;6268487;28;20044;-75
2021/11/13 10:07:36;;;;;;;28.92;11.82;;;12.70;65.00;;;;;;6274247;28;20116;-75
2021/11/13 10:10:40;;;;;;;32.30;11.95;;;12.80;64.60;;;;;;6238958;28;20041;-77
2021/11/13 10:13:48;;;;;;;26.30;10.93;;;12.90;64.50;;;;;;6269337;28;20352;-76
2021/11/13 10:16:51;;;;;;;27.80;12.77;;;13.00;64.00;;;;;;6270703;28;20043;-75
2021/11/13 10:19:54;;;;;;;30.88;12.40;;;13.00;63.70;;;;;;6271544;28;20094;-75
2021/11/13 10:22:55;;;;;;;27.13;11.65;;;13.10;63.40;;;;;;6261139;28;20037;-75
2021/11/13 10:26:15;;;;;;;30.65;12.63;;;13.10;63.40;;;;;;6257921;28;20037;-74
2021/11/13 10:29:22;;;;;;;35.90;12.48;;;13.20;63.20;;;;;;6255224;28;20040;-75
2021/11/13 10:32:24;;;;;;;31.00;12.23;;;13.30;63.00;;;;;;6257250;28;20350;-76
2021/11/13 10:35:47;;;;;;;26.40;10.85;;;13.30;62.60;;;;;;6250682;28;20094;-75
2021/11/13 10:38:56;;;;;;;26.95;11.15;;;13.30;63.30;;;;;;6253886;28;20040;-75
2021/11/13 10:42:01;;;;;;;;;;;13.40;62.30;;;;;;6249652;28;20425;-75
2021/11/13 10:45:03;;;;;;;22.88;10.13;;;13.40;62.30;;;;;;6262590;28;22995;-75
2021/11/13 10:48:19;;;;;;;20.40;9.35;;;13.50;62.30;;;;;;6259573;28;20091;-76
2021/11/13 10:51:28;;;;;;;23.08;10.27;;;13.40;62.00;;;;;;6239724;28;20083;-76
2021/11/13 10:54:30;;;;;;;28.30;11.45;;;13.50;61.90;;;;;;6253550;28;20041;-76
2021/11/13 10:57:32;;;;;;;25.67;11.50;;;13.40;61.50;;;;;;6256853;28;20044;-75
2021/11/13 11:00:39;;;;;;;35.75;14.00;;;13.40;61.30;;;;;;6268197;28;20473;-75
2021/11/13 11:03:42;;;;;;;26.05;11.10;;;13.40;61.40;;;;;;6268860;28;20040;-75
2021/11/13 11:07:07;;;;;;;28.90;13.65;;;13.40;61.40;;;;;;6246266;28;20112;-76
2021/11/13 11:10:12;;;;;;;31.17;14.05;;;13.40;61.30;;;;;;6252961;28;20030;-75
2021/11/13 11:13:13;;;;;;;33.10;12.32;;;13.40;61.10;;;;;;6266763;28;20033;-75
2021/11/13 11:16:27;;;;;;;24.83;11.18;;;13.40;61.00;;;;;;6268936;28;20522;-75
2021/11/13 11:19:34;;;;;;;24.92;10.70;;;13.50;61.10;;;;;;6259643;28;20049;-75
2021/11/13 11:22:35;;;;;;;28.13;11.35;;;13.60;61.00;;;;;;6240765;28;20034;-75
2021/11/13 11:25:36;;;;;;;22.25;10.43;;;13.70;60.60;;;;;;6243435;28;20087;-75
2021/11/13 11:28:57;;;;;;;21.10;8.93;;;13.80;60.60;;;;;;6248865;28;20036;-75
2021/11/13 11:32:01;;;;;;;22.85;10.00;;;14.00;60.40;;;;;;6241683;28;20052;-76
2021/11/13 11:35:14;;;;;;;24.55;11.52;;;14.10;59.90;;;;;;6260790;28;20069;-75
2021/11/13 11:38:15;;;;;;;24.05;10.20;;;14.10;59.50;;;;;;6263846;28;20473;-76
2021/11/13 11:41:16;;;;;;;19.90;9.52;;;14.10;59.70;;;;;;6265964;28;20033;-74
2021/11/13 11:44:17;;;;;;;27.63;10.55;;;14.30;59.80;;;;;;6264389;28;20071;-75
2021/11/13 11:47:21;;;;;;;23.92;11.38;;;14.40;59.50;;;;;;6252808;28;20037;-77
2021/11/13 11:50:26;;;;;;;26.77;11.18;;;14.60;59.10;;;;;;6265051;28;20119;-75
2021/11/13 11:53:30;;;;;;;26.05;11.70;;;14.80;58.60;;;;;;6264970;28;20044;-76
2021/11/13 11:56:32;;;;;;;30.27;11.43;;;14.80;58.40;;;;;;6240151;28;20025;-75
2021/11/13 11:59:35;;;;;;;29.15;13.18;;;14.80;58.30;;;;;;6250501;28;20111;-76
2021/11/13 12:02:42;;;;;;;28.08;12.75;;;14.90;58.30;;;;;;6258906;28;20116;-75
2021/11/13 12:05:50;;;;;;;25.15;11.77;;;14.90;58.20;;;;;;6229415;28;20048;-76
2021/11/13 12:09:04;;;;;;;28.50;11.82;;;14.90;58.30;;;;;;6238083;28;20083;-76
2021/11/13 12:12:16;;;;;;;26.02;11.50;;;15.00;58.30;;;;;;6268813;28;22487;-76
2021/11/13 12:15:23;;;;;;;22.80;10.98;;;15.00;57.90;;;;;;6233669;28;20132;-75
2021/11/13 12:18:25;;;;;;;33.60;13.60;;;15.10;57.70;;;;;;6234084;28;20411;-77
2021/11/13 12:21:31;;;;;;;26.35;12.02;;;15.10;57.60;;;;;;6236328;28;20120;-76
2021/11/13 12:24:32;;;;;;;18.05;9.60;;;15.20;57.60;;;;;;6237842;28;20842;-75
2021/11/13 12:28:03;;;;;;;24.98;10.50;;;15.20;57.40;;;;;;6236367;28;20041;-76
2021/11/13 12:31:04;;;;;;;23.05;10.32;;;15.30;57.20;;;;;;6255410;28;20041;-74
2021/11/13 12:34:08;;;;;;;21.63;10.70;;;15.30;56.80;;;;;;6241811;28;20600;-75
2021/11/13 12:37:10;;;;;;;20.77;8.98;;;15.30;56.60;;;;;;6264508;28;20458;-76
2021/11/13 12:40:14;;;;;;;21.67;9.98;;;15.30;56.70;;;;;;6245803;28;20032;-76
2021/11/13 12:43:15;;;;;;;21.38;9.73;;;15.20;56.50;;;;;;6242746;28;20057;-75
2021/11/13 12:46:32;;;;;;;21.77;10.52;;;15.20;56.60;;;;;;6263610;28;20129;-76
2021/11/13 12:49:43;;;;;;;23.55;9.38;;;15.20;56.80;;;;;;6261816;28;20025;-76
2021/11/13 12:52:52;;;;;;;21.08;10.25;;;15.30;56.90;;;;;;6230642;28;20153;-75
2021/11/13 12:55:53;;;;;;;21.67;10.77;;;15.30;56.70;;;;;;6228954;28;20048;-75
2021/11/13 12:58:58;;;;;;;26.00;12.88;;;15.30;56.80;;;;;;6262013;28;20459;-75
2021/11/13 13:02:03;;;;;;;23.13;10.60;;;15.20;56.70;;;;;;6263497;28;20094;-75
2021/11/13 13:05:06;;;;;;;20.45;10.57;;;15.20;56.90;;;;;;6259368;28;20032;-77
2021/11/13 13:08:08;;;;;;;23.25;10.95;;;15.20;57.00;;;;;;6263458;28;20033;-76
2021/11/13 13:11:10;;;;;;;23.42;10.75;;;15.30;57.10;;;;;;6233111;28;20037;-75
2021/11/13 13:14:11;;;;;;;23.67;11.23;;;15.30;56.80;;;;;;6264273;28;20086;-75
2021/11/13 13:17:21;;;;;;;23.77;10.38;;;15.40;56.70;;;;;;6263686;28;20450;-76
2021/11/13 13:20:27;;;;;;;25.35;10.57;;;15.50;56.40;;;;;;6245864;28;20135;-75
2021/11/13 13:23:29;;;;;;;23.52;11.13;;;15.50;56.10;;;;;;6265806;28;20432;-76
2021/11/13 13:26:30;;;;;;;22.35;11.00;;;15.50;56.00;;;;;;6266571;28;20033;-76
2021/11/13 13:29:31;;;;;;;28.02;11.30;;;15.50;56.00;;;;;;6268302;28;20052;-76
2021/11/13 13:32:34;;;;;;;23.13;10.85;;;15.50;56.20;;;;;;6264878;28;20034;-75
2021/11/13 13:35:39;;;;;;;25.08;10.90;;;15.50;56.00;;;;;;6266371;28;20489;-76
2021/11/13 13:38:39;;;;;;;19.77;10.32;;;15.40;56.10;;;;;;6269231;28;20037;-75
2021/11/13 13:41:41;;;;;;;29.02;11.07;;;15.40;56.10;;;;;;6270416;28;20327;-75
2021/11/13 13:44:44;;;;;;;22.83;10.10;;;15.40;56.30;;;;;;6267781;28;20029;-76
2021/11/13 13:47:48;;;;;;;30.65;10.88;;;15.30;56.20;;;;;;6247320;28;20037;-76
2021/11/13 13:50:53;;;;;;;26.13;11.05;;;15.30;56.30;;;;;;6270081;28;20063;-76
2021/11/13 13:54:08;;;;;;;24.00;11.35;;;15.20;56.50;;;;;;6249707;28;20064;-76
2021/11/13 13:57:11;;;;;;;31.83;11.63;;;15.20;56.50;;;;;;6260139;28;20459;-76
2021/11/13 14:00:15;;;;;;;26.90;10.80;;;15.30;56.60;;;;;;6269901;28;20108;-75
2021/11/13 14:03:25;;;;;;;21.10;10.63;;;15.30;56.40;;;;;;6250823;28;20033;-75
2021/11/13 14:06:26;;;;;;;23.13;10.05;;;15.30;56.50;;;;;;6268732;28;20071;-76
2021/11/13 14:09:27;;;;;;;23.23;11.20;;;15.40;56.50;;;;;;6251652;28;20044;-76
2021/11/13 14:12:45;;;;;;;26.83;11.00;;;15.50;56.60;;;;;;6465820;23;20353;-76
2021/11/13 14:15:54;;;;;;;26.67;11.35;;;15.50;56.50;;;;;;6300021;28;20085;-75
2021/11/13 14:18:56;;;;;;;25.52;11.25;;;15.60;56.40;;;;;;6267406;28;20037;-76
2021/11/13 14:22:04;;;;;;;27.67;12.23;;;15.60;56.30;;;;;;6269324;28;20037;-75
2021/11/13 14:25:08;;;;;;;31.13;12.70;;;15.70;56.20;;;;;;6307193;28;20101;-76
2021/11/13 14:28:10;;;;;;;41.78;18.45;;;15.70;56.10;;;;;;6263739;28;20041;-76
2021/11/13 14:31:26;;;;;;;43.55;17.35;;;15.70;55.80;;;;;;6270816;28;20040;-75
2021/11/13 14:34:29;;;;;;;44.88;17.85;;;15.70;55.90;;;;;;6262567;28;20485;-75
2021/11/13 14:37:31;;;;;;;48.72;19.25;;;15.60;55.80;;;;;;6291439;28;20383;-76
2021/11/13 14:40:32;;;;;;;29.63;14.90;;;15.60;55.70;;;;;;6308094;28;20496;-76
2021/11/13 14:43:37;;;;;;;26.70;12.05;;;15.60;55.80;;;;;;6291248;28;20089;-76
2021/11/13 14:47:03;;;;;;;22.58;11.50;;;15.60;55.90;;;;;;6255419;28;20036;-75
2021/11/13 14:50:09;;;;;;;24.95;11.68;;;15.60;56.00;;;;;;6262832;28;20037;-76
2021/11/13 14:53:12;;;;;;;19.95;10.13;;;15.50;56.00;;;;;;6271923;28;20040;-76
2021/11/13 14:56:30;;;;;;;22.45;10.20;;;15.40;56.10;;;;;;6273589;28;20032;-76
2021/11/13 14:59:39;;;;;;;23.60;11.18;;;15.40;56.40;;;;;;6293968;28;20506;-77
2021/11/13 15:02:40;;;;;;;19.98;10.20;;;15.40;56.50;;;;;;6265394;28;20464;-75
2021/11/13 15:05:53;;;;;;;24.40;11.40;;;15.40;56.60;;;;;;6268993;28;20033;-76
2021/11/13 15:08:56;;;;;;;31.17;15.25;;;15.40;56.80;;;;;;6258817;28;20037;-77
2021/11/13 15:11:59;;;;;;;23.75;11.35;;;15.40;56.90;;;;;;6266315;28;20110;-77
2021/11/13 15:15:03;;;;;;;30.05;11.82;;;15.40;56.90;;;;;;6287251;28;20042;-75
2021/11/13 15:18:04;;;;;;;32.67;11.75;;;15.40;57.00;;;;;;6269303;28;20047;-76
2021/11/13 15:21:07;;;;;;;23.13;11.25;;;15.40;57.00;;;;;;6276201;28;20481;-76
2021/11/13 15:24:19;;;;;;;26.30;10.93;;;15.40;57.00;;;;;;6287670;28;20142;-75
2021/11/13 15:27:23;;;;;;;26.13;11.38;;;15.30;57.10;;;;;;6277844;28;20062;-76
2021/11/13 15:30:25;;;;;;;21.13;10.27;;;15.30;57.20;;;;;;6283843;28;20036;-76
2021/11/13 15:33:32;;;;;;;19.95;9.48;;;15.30;57.80;;;;;;6283581;28;20036;-77
2021/11/13 15:36:33;;;;;;;23.98;10.68;;;15.30;57.20;;;;;;6276845;28;20052;-76
2021/11/13 15:39:38;;;;;;;29.35;12.02;;;15.30;57.30;;;;;;6286973;28;20106;-77